createdAt,value
2023-10-20T00:00:55.577Z,19.90
2023-10-20T00:04:07.445Z,20.00
2023-10-20T00:07:10.127Z,20.12
2023-10-20T00:10:12.890Z,20.25
2023-10-20T00:13:15.708Z,20.26
2023-10-20T00:16:27.966Z,20.27
2023-10-20T00:19:30.988Z,19.85
2023-10-20T00:22:33.136Z,19.58
2023-10-20T00:25:35.563Z,19.82
2023-10-20T00:28:38.072Z,19.90
2023-10-20T00:31:41.214Z,20.02
2023-10-20T00:34:43.513Z,20.00
2023-10-20T00:37:46.103Z,20.02
2023-10-20T00:40:51.613Z,20.10
2023-10-20T00:43:54.919Z,20.13
2023-10-20T00:46:58.304Z,20.12
2023-10-20T00:50:01.302Z,20.16
2023-10-20T00:53:04.198Z,20.12
2023-10-20T00:56:07.731Z,20.05
2023-10-20T00:59:10.771Z,20.08
2023-10-20T01:02:14.247Z,20.10
2023-10-20T01:05:17.095Z,20.09
2023-10-20T01:08:20.618Z,19.99
2023-10-20T01:11:23.078Z,20.00
2023-10-20T01:14:26.646Z,20.02
2023-10-20T01:17:30.489Z,19.82
2023-10-20T01:20:33.753Z,19.86
2023-10-20T01:23:36.013Z,19.34
2023-10-20T01:26:38.583Z,19.35
2023-10-20T01:29:41.868Z,19.54
2023-10-20T01:32:45.151Z,19.78
2023-10-20T01:35:47.946Z,19.78
2023-10-20T01:38:51.479Z,19.78
2023-10-20T01:41:53.705Z,19.76
2023-10-20T01:44:56.419Z,19.71
2023-10-20T01:47:58.913Z,19.78
2023-10-20T01:51:02.248Z,19.31
2023-10-20T01:54:04.823Z,19.14
2023-10-20T01:57:07.692Z,19.32
2023-10-20T02:00:15.076Z,19.22
2023-10-20T02:03:19.210Z,19.58
2023-10-20T02:06:21.889Z,19.59
2023-10-20T02:09:27.787Z,19.30
2023-10-20T02:12:30.037Z,19.08
2023-10-20T02:15:32.949Z,19.17
2023-10-20T02:18:36.500Z,18.39
2023-10-20T02:21:40.369Z,18.93
2023-10-20T02:24:42.828Z,18.96
2023-10-20T02:27:45.652Z,19.04
2023-10-20T02:30:47.828Z,19.03
2023-10-20T02:33:51.447Z,18.87
2023-10-20T02:36:54.096Z,18.26
2023-10-20T02:39:58.194Z,17.55
2023-10-20T02:43:00.514Z,17.88
2023-10-20T02:46:04.157Z,18.05
2023-10-20T02:49:06.528Z,17.96
2023-10-20T02:52:09.267Z,18.01
2023-10-20T02:55:11.547Z,17.99
2023-10-20T02:58:14.758Z,18.35
2023-10-20T03:01:19.368Z,17.74
2023-10-20T03:04:22.653Z,18.22
2023-10-20T03:07:28.964Z,17.45
2023-10-20T03:10:31.752Z,18.13
2023-10-20T03:13:34.813Z,17.96
2023-10-20T03:16:44.363Z,17.75
2023-10-20T03:19:46.943Z,17.60
2023-10-20T03:22:51.110Z,16.48
2023-10-20T03:25:53.378Z,17.16
2023-10-20T03:28:56.416Z,18.19
2023-10-20T03:31:59.628Z,18.53
2023-10-20T03:35:03.273Z,17.47
2023-10-20T03:38:09.332Z,18.33
2023-10-20T03:41:12.932Z,18.76
2023-10-20T03:44:15.808Z,18.10
2023-10-20T03:47:20.154Z,17.60
2023-10-20T03:50:23.157Z,18.19
2023-10-20T03:53:28.858Z,17.78
2023-10-20T03:56:31.356Z,17.64
2023-10-20T03:59:34.046Z,17.45
2023-10-20T04:02:36.405Z,18.18
2023-10-20T04:05:40.104Z,17.74
2023-10-20T04:08:42.841Z,18.13
2023-10-20T04:11:46.153Z,18.22
2023-10-20T04:14:48.666Z,17.51
2023-10-20T04:17:53.385Z,17.04
2023-10-20T04:20:59.064Z,17.45
2023-10-20T04:24:01.796Z,17.50
2023-10-20T04:27:05.971Z,17.68
2023-10-20T04:30:29.113Z,17.94
2023-10-20T04:33:50.302Z,17.79
2023-10-20T04:37:11.618Z,16.87
2023-10-20T04:40:32.722Z,16.83
2023-10-20T04:43:43.317Z,17.67
2023-10-20T04:47:01.961Z,18.01
2023-10-20T04:50:37.173Z,17.68
2023-10-20T04:54:09.183Z,16.87
2023-10-20T04:57:33.813Z,17.91
2023-10-20T05:00:39.232Z,17.34
2023-10-20T05:03:48.138Z,17.61
2023-10-20T05:07:03.374Z,17.41
2023-10-20T05:10:07.830Z,17.75
2023-10-20T05:13:10.640Z,18.21
2023-10-20T05:16:13.749Z,18.30
2023-10-20T05:19:16.059Z,18.02
2023-10-20T05:22:18.813Z,18.16
2023-10-20T05:25:21.192Z,18.15
2023-10-20T05:28:24.959Z,17.96
2023-10-20T05:31:28.509Z,18.42
2023-10-20T05:34:32.879Z,17.47
2023-10-20T05:37:35.462Z,17.13
2023-10-20T05:40:38.724Z,16.80
2023-10-20T05:43:42.446Z,16.84
2023-10-20T05:46:45.547Z,15.85
2023-10-20T05:49:47.855Z,16.07
2023-10-20T05:52:54.187Z,16.51
2023-10-20T05:55:56.207Z,16.69
2023-10-20T05:58:59.108Z,17.13
2023-10-20T06:02:04.666Z,17.06
2023-10-20T06:05:11.772Z,17.79
2023-10-20T06:08:14.357Z,16.59
2023-10-20T06:11:17.406Z,15.68
2023-10-20T06:14:19.560Z,15.46
2023-10-20T06:17:22.675Z,15.91
2023-10-20T06:20:25.687Z,16.63
2023-10-20T06:23:28.801Z,16.30
2023-10-20T06:26:31.106Z,16.15
2023-10-20T06:29:34.439Z,16.65
2023-10-20T06:32:46.587Z,17.06
2023-10-20T06:35:53.468Z,17.67
2023-10-20T06:38:55.847Z,17.63
2023-10-20T06:41:58.697Z,17.04
2023-10-20T06:45:06.296Z,17.16
2023-10-20T06:48:09.241Z,17.31
2023-10-20T06:51:11.778Z,15.54
2023-10-20T06:54:14.871Z,15.98
2023-10-20T06:57:20.399Z,16.02
2023-10-20T07:00:23.475Z,15.78
2023-10-20T07:03:27.125Z,15.95
2023-10-20T07:06:30.125Z,16.92
2023-10-20T07:09:32.310Z,16.00
2023-10-20T07:12:35.183Z,16.52
2023-10-20T07:15:40.415Z,16.94
2023-10-20T07:18:43.203Z,17.24
2023-10-20T07:21:45.450Z,17.41
2023-10-20T07:24:49.049Z,17.14
2023-10-20T07:27:51.951Z,16.97
2023-10-20T07:30:55.343Z,16.53
2023-10-20T07:33:59.615Z,16.70
2023-10-20T07:37:02.051Z,16.17
2023-10-20T07:40:06.311Z,15.33
2023-10-20T07:43:09.112Z,16.19
2023-10-20T07:46:19.150Z,15.74
2023-10-20T07:49:24.166Z,15.22
2023-10-20T07:52:27.412Z,15.09
2023-10-20T07:55:30.695Z,15.56
2023-10-20T07:58:34.140Z,14.95
2023-10-20T08:01:36.977Z,15.10
2023-10-20T08:04:42.014Z,15.93
2023-10-20T08:07:45.214Z,14.76
2023-10-20T08:10:49.040Z,15.64
2023-10-20T08:13:52.840Z,15.13
2023-10-20T08:16:57.199Z,15.24
2023-10-20T08:20:00.761Z,14.30
2023-10-20T08:23:02.987Z,14.08
2023-10-20T08:26:06.227Z,14.75
2023-10-20T08:29:12.680Z,14.61
2023-10-20T08:32:15.668Z,14.18
2023-10-20T08:35:18.409Z,15.24
2023-10-20T08:38:21.912Z,15.20
2023-10-20T08:41:25.062Z,16.49
2023-10-20T08:44:28.663Z,15.00
2023-10-20T08:47:31.646Z,17.28
2023-10-20T08:50:37.231Z,16.66
2023-10-20T08:53:41.235Z,16.36
2023-10-20T08:56:44.712Z,14.38
2023-10-20T08:59:53.942Z,15.37
2023-10-20T09:02:59.931Z,15.95
2023-10-20T09:06:11.464Z,16.89
2023-10-20T09:09:14.494Z,17.50
2023-10-20T09:12:17.411Z,16.52
2023-10-20T09:15:20.029Z,16.21
2023-10-20T09:18:23.471Z,16.11
2023-10-20T09:21:30.258Z,16.33
2023-10-20T09:24:33.215Z,15.70
2023-10-20T09:27:35.981Z,16.93
2023-10-20T09:30:40.202Z,15.27
2023-10-20T09:33:43.612Z,17.65
2023-10-20T09:36:48.820Z,16.94
2023-10-20T09:39:57.724Z,17.94
2023-10-20T09:43:25.096Z,18.28
2023-10-20T09:46:57.357Z,18.55
2023-10-20T09:50:01.245Z,18.09
2023-10-20T09:53:04.263Z,17.94
2023-10-20T09:56:07.254Z,17.44
2023-10-20T09:59:11.040Z,17.14
2023-10-20T10:02:13.454Z,17.48
2023-10-20T10:05:23.578Z,16.42
2023-10-20T10:08:26.441Z,17.02
2023-10-20T10:11:31.084Z,16.59
2023-10-20T10:14:34.213Z,15.83
2023-10-20T10:17:50.500Z,16.94
2023-10-20T10:20:53.547Z,17.50
2023-10-20T10:24:16.471Z,17.73
2023-10-20T10:27:21.047Z,18.47
2023-10-20T10:30:29.252Z,17.98
2023-10-20T10:33:31.471Z,18.30
2023-10-20T10:36:45.313Z,17.40
2023-10-20T10:39:47.580Z,17.31
2023-10-20T10:42:51.672Z,17.84
2023-10-20T10:45:55.326Z,18.09
2023-10-20T10:49:10.344Z,18.46
2023-10-20T10:52:12.482Z,18.22
2023-10-20T10:55:15.908Z,18.39
2023-10-20T10:58:18.513Z,18.63
2023-10-20T11:01:22.312Z,18.60
2023-10-20T11:04:25.829Z,17.96
2023-10-20T11:07:28.623Z,18.42
2023-10-20T11:10:32.242Z,17.65
2023-10-20T11:13:35.192Z,17.61
2023-10-20T11:16:40.635Z,17.35
2023-10-20T11:19:44.094Z,17.77
2023-10-20T11:22:46.863Z,17.37
2023-10-20T11:25:51.454Z,17.67
2023-10-20T11:28:54.328Z,17.70
2023-10-20T11:31:58.264Z,17.77
2023-10-20T11:35:00.715Z,17.79
2023-10-20T11:38:04.601Z,17.94
2023-10-20T11:41:06.893Z,18.01
2023-10-20T11:44:09.947Z,18.26
2023-10-20T11:47:12.244Z,17.82
2023-10-20T11:50:20.584Z,17.95
2023-10-20T11:53:23.717Z,18.06
2023-10-20T11:56:29.126Z,18.32
2023-10-20T11:59:34.602Z,18.01
2023-10-20T12:02:41.005Z,18.15
2023-10-20T12:05:43.916Z,17.85
2023-10-20T12:08:46.458Z,17.54
2023-10-20T12:11:48.761Z,17.79
2023-10-20T12:14:51.450Z,18.36
2023-10-20T12:17:53.649Z,18.61
2023-10-20T12:20:56.594Z,18.50
2023-10-20T12:23:59.235Z,18.66
2023-10-20T12:27:02.874Z,18.52
2023-10-20T12:30:05.891Z,18.67
2023-10-20T12:33:09.861Z,18.67
2023-10-20T12:36:17.924Z,18.76
2023-10-20T12:39:22.525Z,18.71
2023-10-20T12:42:25.744Z,18.71
2023-10-20T12:45:29.896Z,18.69
2023-10-20T12:48:32.537Z,18.87
2023-10-20T12:51:35.727Z,18.96
2023-10-20T12:54:38.017Z,18.93
2023-10-20T12:57:41.292Z,18.99
2023-10-20T13:00:43.467Z,19.01
2023-10-20T13:03:46.215Z,18.93
2023-10-20T13:06:59.815Z,18.97
2023-10-20T13:10:05.137Z,19.01
2023-10-20T13:13:10.004Z,18.93
2023-10-20T13:16:14.787Z,18.90
2023-10-20T13:19:17.158Z,18.97
2023-10-20T13:22:20.079Z,18.93
2023-10-20T13:25:24.499Z,18.96
2023-10-20T13:28:28.002Z,18.99
2023-10-20T13:31:30.342Z,18.91
2023-10-20T13:34:35.376Z,18.96
2023-10-20T13:37:39.419Z,19.01
2023-10-20T13:40:42.251Z,18.94
2023-10-20T13:43:46.033Z,18.96
2023-10-20T13:46:49.099Z,18.93
2023-10-20T13:49:51.378Z,18.94
2023-10-20T13:52:54.204Z,18.96
2023-10-20T13:55:56.535Z,18.87
2023-10-20T13:59:00.051Z,18.42
2023-10-20T14:02:02.307Z,18.50
2023-10-20T14:05:08.819Z,18.42
2023-10-20T14:08:13.046Z,18.39
2023-10-20T14:11:16.142Z,18.36
2023-10-20T14:14:18.429Z,18.67
2023-10-20T14:17:21.396Z,18.81
2023-10-20T14:20:24.369Z,18.87
2023-10-20T14:23:33.037Z,18.83
2023-10-20T14:26:35.805Z,18.87
2023-10-20T14:29:38.291Z,18.84
2023-10-20T14:32:40.587Z,18.89
2023-10-20T14:35:43.768Z,18.90
2023-10-20T14:38:47.822Z,18.89
2023-10-20T14:41:50.735Z,18.87
2023-10-20T14:44:53.157Z,18.86
2023-10-20T14:47:56.674Z,18.87
2023-10-20T14:51:02.831Z,18.83
2023-10-20T14:54:05.735Z,18.76
2023-10-20T14:57:08.525Z,18.73
2023-10-20T15:00:12.697Z,18.69
2023-10-20T15:03:22.624Z,18.76
2023-10-20T15:06:27.274Z,18.74
2023-10-20T15:09:29.619Z,18.74
2023-10-20T15:12:33.108Z,18.55
2023-10-20T15:15:37.723Z,18.59
2023-10-20T15:18:40.614Z,18.69
2023-10-20T15:21:44.366Z,18.67
2023-10-20T15:24:49.488Z,18.70
2023-10-20T15:27:52.342Z,18.66
2023-10-20T15:30:54.903Z,18.67
2023-10-20T15:33:57.047Z,18.63
2023-10-20T15:37:20.652Z,18.59
2023-10-20T15:40:23.452Z,18.61
2023-10-20T15:43:27.944Z,18.67
2023-10-20T15:46:30.635Z,18.69
2023-10-20T15:49:33.352Z,18.79
2023-10-20T15:52:36.730Z,18.87
2023-10-20T15:55:44.504Z,19.01
2023-10-20T16:02:36.307Z,19.17
2023-10-20T16:05:42.066Z,19.20
2023-10-20T16:08:59.274Z,19.15
2023-10-20T16:16:34.836Z,19.04
2023-10-20T16:20:11.999Z,18.89
2023-10-20T16:31:25.744Z,18.67
2023-10-20T16:34:29.581Z,18.70
2023-10-20T16:41:25.667Z,18.69
2023-10-20T16:44:35.399Z,18.73
2023-10-20T16:47:39.535Z,18.74
2023-10-20T16:51:19.626Z,18.53
2023-10-20T16:54:22.571Z,18.36
2023-10-20T16:57:45.841Z,18.12
2023-10-20T17:04:29.925Z,18.15
2023-10-20T17:07:32.496Z,18.39
2023-10-20T17:10:38.757Z,18.47
2023-10-20T17:13:41.690Z,18.63
2023-10-20T17:16:46.905Z,18.67
2023-10-20T17:19:49.560Z,18.71
2023-10-20T17:22:51.675Z,18.71
2023-10-20T17:25:54.484Z,18.74
2023-10-20T17:28:56.652Z,18.71
2023-10-20T17:32:00.448Z,18.69
2023-10-20T17:35:02.890Z,18.76
2023-10-20T17:38:05.787Z,18.77
2023-10-20T17:41:09.187Z,18.77
2023-10-20T17:44:12.372Z,18.77
2023-10-20T17:47:15.980Z,18.77
2023-10-20T17:50:18.962Z,18.80
2023-10-20T17:53:21.665Z,18.71
2023-10-20T17:56:24.533Z,18.77
2023-10-20T17:59:30.995Z,18.73
2023-10-20T18:02:35.205Z,18.71
2023-10-20T18:05:38.578Z,18.76
2023-10-20T18:12:18.631Z,18.74
2023-10-20T18:15:22.344Z,18.73
2023-10-20T18:18:33.802Z,18.70
2023-10-20T18:21:40.738Z,18.73
2023-10-20T18:24:45.442Z,18.70
2023-10-20T18:28:12.993Z,18.67
2023-10-20T18:31:37.907Z,18.64
2023-10-20T18:43:44.530Z,18.59
2023-10-20T18:47:25.128Z,18.60
2023-10-20T18:59:57.084Z,18.69
2023-10-20T19:03:00.212Z,18.76
2023-10-20T19:06:04.756Z,18.81
2023-10-20T19:09:07.444Z,18.83
2023-10-20T19:12:10.528Z,18.89
2023-10-20T19:15:33.059Z,18.90
2023-10-20T19:18:37.141Z,18.94
2023-10-20T19:21:43.829Z,19.03
2023-10-20T19:24:49.277Z,19.06
2023-10-20T19:27:52.069Z,19.11
2023-10-20T19:31:01.379Z,19.14
2023-10-20T19:34:06.207Z,19.15
2023-10-20T19:37:08.859Z,19.12
2023-10-20T19:40:11.385Z,19.14
2023-10-20T19:43:14.418Z,19.11
2023-10-20T19:46:16.858Z,19.12
2023-10-20T19:49:19.911Z,19.11
2023-10-20T19:52:22.275Z,19.10
2023-10-20T19:55:24.845Z,19.08
2023-10-20T19:58:30.507Z,19.04
2023-10-20T20:01:40.946Z,19.00
2023-10-20T20:04:43.371Z,19.01
2023-10-20T20:07:46.394Z,18.97
2023-10-20T20:10:48.651Z,18.97
2023-10-20T20:13:51.667Z,18.96
2023-10-20T20:16:54.001Z,18.89
2023-10-20T20:19:57.644Z,18.91
2023-10-20T20:23:01.828Z,18.97
2023-10-20T20:26:05.673Z,18.83
2023-10-20T20:29:08.524Z,18.87
2023-10-20T20:32:11.096Z,18.89
2023-10-20T20:35:13.489Z,18.86
2023-10-20T20:38:16.900Z,18.83
2023-10-20T20:41:19.602Z,18.81
2023-10-20T20:44:23.501Z,18.86
2023-10-20T20:47:26.199Z,18.96
2023-10-20T20:50:33.537Z,19.01
2023-10-20T20:53:36.811Z,19.11
2023-10-20T20:56:39.529Z,19.14
2023-10-20T20:59:41.912Z,19.11
2023-10-20T21:02:44.522Z,19.25
2023-10-20T21:05:46.934Z,19.32
2023-10-20T21:08:49.848Z,19.34
2023-10-20T21:11:52.201Z,19.35
2023-10-20T21:14:56.556Z,19.36
2023-10-20T21:17:59.102Z,19.35
2023-10-20T21:21:03.694Z,19.41
2023-10-20T21:24:06.977Z,19.45
2023-10-20T21:27:09.561Z,19.45
2023-10-20T21:30:12.864Z,19.47
2023-10-20T21:33:15.892Z,19.52
2023-10-20T21:36:18.285Z,19.58
2023-10-20T21:39:23.020Z,19.57
2023-10-20T21:42:25.189Z,19.61
2023-10-20T21:45:28.049Z,19.62
2023-10-20T21:48:32.322Z,19.63
2023-10-20T21:51:35.396Z,19.62
2023-10-20T21:54:37.515Z,19.68
2023-10-20T21:57:40.073Z,19.69
2023-10-20T22:00:45.948Z,19.71
2023-10-20T22:03:48.670Z,19.73
2023-10-20T22:06:51.507Z,19.81
2023-10-20T22:09:54.707Z,19.83
2023-10-20T22:12:57.920Z,19.86
2023-10-20T22:16:00.696Z,19.87
2023-10-20T22:19:03.561Z,19.87
2023-10-20T22:22:06.190Z,19.90
2023-10-20T22:25:08.893Z,19.96
2023-10-20T22:28:11.663Z,19.95
2023-10-20T22:31:13.950Z,19.95
2023-10-20T22:34:17.088Z,19.95
2023-10-20T22:37:19.542Z,19.97
2023-10-20T22:40:22.774Z,20.02
2023-10-20T22:43:24.867Z,19.99
2023-10-20T22:46:27.585Z,20.02
2023-10-20T22:49:29.677Z,20.06
2023-10-20T22:52:32.667Z,20.03
2023-10-20T22:55:35.147Z,20.08
2023-10-20T22:58:38.178Z,20.10
2023-10-20T23:01:40.698Z,20.16
2023-10-20T23:04:43.320Z,20.15
2023-10-20T23:07:45.564Z,20.13
2023-10-20T23:10:48.379Z,20.15
2023-10-20T23:13:50.399Z,20.17
2023-10-20T23:16:54.560Z,20.17
2023-10-20T23:19:58.062Z,20.19
2023-10-20T23:23:00.772Z,20.22
2023-10-20T23:26:03.796Z,20.20
2023-10-20T23:29:06.334Z,20.25
2023-10-20T23:32:10.142Z,20.23
2023-10-20T23:35:12.839Z,20.19
2023-10-20T23:38:15.309Z,20.10
2023-10-20T23:41:17.979Z,20.03
2023-10-20T23:44:20.877Z,19.96
2023-10-20T23:47:23.362Z,19.90
2023-10-20T23:50:25.795Z,19.87
2023-10-20T23:53:28.761Z,19.82
2023-10-20T23:56:31.568Z,19.78
2023-10-20T23:59:34.569Z,19.78
